sensor_id;sensor_type;location;lat;lon;timestamp;P1;durP1;ratioP1;P2;durP2;ratioP2
37284;SDS011;23172;53.550;9.964;2022-07-23T00:01:58;7.90;;;6.82;;
37284;SDS011;23172;53.550;9.964;2022-07-23T00:07:01;3.83;;;3.25;;
37284;SDS011;23172;53.550;9.964;2022-07-23T00:12:03;4.07;;;3.58;;
37284;SDS011;23172;53.550;9.964;2022-07-23T00:17:05;4.68;;;4.18;;
37284;SDS011;23172;53.550;9.964;2022-07-23T00:22:09;6.03;;;4.88;;
37284;SDS011;23172;53.550;9.964;2022-07-23T00:27:10;5.30;;;3.92;;
37284;SDS011;23172;53.550;9.964;2022-07-23T00:32:12;4.65;;;3.90;;
37284;SDS011;23172;53.550;9.964;2022-07-23T00:37:15;4.68;;;3.00;;
37284;SDS011;23172;53.550;9.964;2022-07-23T00:42:17;3.35;;;3.05;;
37284;SDS011;23172;53.550;9.964;2022-07-23T00:47:19;3.28;;;2.97;;
37284;SDS011;23172;53.550;9.964;2022-07-23T00:52:22;5.85;;;4.03;;
37284;SDS011;23172;53.550;9.964;2022-07-23T00:57:24;7.57;;;5.93;;
37284;SDS011;23172;53.550;9.964;2022-07-23T01:02:27;5.18;;;4.15;;
37284;SDS011;23172;53.550;9.964;2022-07-23T01:07:30;3.58;;;2.75;;
37284;SDS011;23172;53.550;9.964;2022-07-23T01:12:32;3.10;;;2.65;;
37284;SDS011;23172;53.550;9.964;2022-07-23T01:17:33;3.88;;;3.15;;
37284;SDS011;23172;53.550;9.964;2022-07-23T01:22:37;5.13;;;3.70;;
37284;SDS011;23172;53.550;9.964;2022-07-23T01:27:38;3.25;;;2.90;;
37284;SDS011;23172;53.550;9.964;2022-07-23T01:32:40;6.70;;;3.60;;
37284;SDS011;23172;53.550;9.964;2022-07-23T01:37:44;5.93;;;4.55;;
37284;SDS011;23172;53.550;9.964;2022-07-23T01:42:45;4.93;;;3.35;;
37284;SDS011;23172;53.550;9.964;2022-07-23T01:47:47;4.10;;;2.40;;
37284;SDS011;23172;53.550;9.964;2022-07-23T01:52:51;3.05;;;2.38;;
37284;SDS011;23172;53.550;9.964;2022-07-23T01:57:53;3.90;;;2.55;;
37284;SDS011;23172;53.550;9.964;2022-07-23T02:02:54;2.85;;;1.98;;
37284;SDS011;23172;53.550;9.964;2022-07-23T02:07:59;3.45;;;2.40;;
37284;SDS011;23172;53.550;9.964;2022-07-23T02:13:02;3.53;;;2.22;;
37284;SDS011;23172;53.550;9.964;2022-07-23T02:18:03;8.40;;;5.43;;
37284;SDS011;23172;53.550;9.964;2022-07-23T02:23:07;4.05;;;2.50;;
37284;SDS011;23172;53.550;9.964;2022-07-23T02:28:09;2.30;;;2.10;;
37284;SDS011;23172;53.550;9.964;2022-07-23T02:33:10;2.50;;;2.30;;
37284;SDS011;23172;53.550;9.964;2022-07-23T02:38:14;2.03;;;1.83;;
37284;SDS011;23172;53.550;9.964;2022-07-23T02:43:15;1.88;;;1.67;;
37284;SDS011;23172;53.550;9.964;2022-07-23T02:48:17;1.90;;;1.70;;
37284;SDS011;23172;53.550;9.964;2022-07-23T02:53:20;4.18;;;2.00;;
37284;SDS011;23172;53.550;9.964;2022-07-23T02:58:22;2.92;;;2.60;;
37284;SDS011;23172;53.550;9.964;2022-07-23T03:03:25;3.25;;;2.40;;
37284;SDS011;23172;53.550;9.964;2022-07-23T03:08:28;2.38;;;2.10;;
37284;SDS011;23172;53.550;9.964;2022-07-23T03:13:30;3.47;;;2.55;;
37284;SDS011;23172;53.550;9.964;2022-07-23T03:18:31;2.42;;;1.90;;
37284;SDS011;23172;53.550;9.964;2022-07-23T03:23:35;2.95;;;1.70;;
37284;SDS011;23172;53.550;9.964;2022-07-23T03:28:36;2.63;;;2.03;;
37284;SDS011;23172;53.550;9.964;2022-07-23T03:33:38;3.53;;;2.08;;
37284;SDS011;23172;53.550;9.964;2022-07-23T03:38:42;3.50;;;2.33;;
37284;SDS011;23172;53.550;9.964;2022-07-23T03:43:44;2.15;;;1.80;;
37284;SDS011;23172;53.550;9.964;2022-07-23T03:48:46;2.50;;;2.20;;
37284;SDS011;23172;53.550;9.964;2022-07-23T03:53:49;3.50;;;2.85;;
37284;SDS011;23172;53.550;9.964;2022-07-23T03:58:51;3.97;;;3.58;;
37284;SDS011;23172;53.550;9.964;2022-07-23T04:03:53;4.25;;;2.90;;
37284;SDS011;23172;53.550;9.964;2022-07-23T04:08:56;3.55;;;2.80;;
37284;SDS011;23172;53.550;9.964;2022-07-23T04:13:58;3.80;;;3.05;;
37284;SDS011;23172;53.550;9.964;2022-07-23T04:19:00;3.10;;;2.80;;
37284;SDS011;23172;53.550;9.964;2022-07-23T04:24:06;3.03;;;2.38;;
37284;SDS011;23172;53.550;9.964;2022-07-23T04:29:08;4.40;;;3.22;;
37284;SDS011;23172;53.550;9.964;2022-07-23T04:34:09;2.97;;;2.67;;
37284;SDS011;23172;53.550;9.964;2022-07-23T04:39:12;3.55;;;2.30;;
37284;SDS011;23172;53.550;9.964;2022-07-23T04:44:14;3.08;;;2.33;;
37284;SDS011;23172;53.550;9.964;2022-07-23T04:49:16;2.70;;;2.28;;
37284;SDS011;23172;53.550;9.964;2022-07-23T04:54:19;2.55;;;2.22;;
37284;SDS011;23172;53.550;9.964;2022-07-23T04:59:21;2.10;;;1.90;;
37284;SDS011;23172;53.550;9.964;2022-07-23T05:04:23;3.20;;;1.50;;
37284;SDS011;23172;53.550;9.964;2022-07-23T05:09:26;1.77;;;1.30;;
37284;SDS011;23172;53.550;9.964;2022-07-23T05:14:28;1.08;;;0.95;;
37284;SDS011;23172;53.550;9.964;2022-07-23T05:19:30;0.82;;;0.80;;
37284;SDS011;23172;53.550;9.964;2022-07-23T05:24:33;1.02;;;0.75;;
37284;SDS011;23172;53.550;9.964;2022-07-23T05:29:35;1.88;;;1.10;;
37284;SDS011;23172;53.550;9.964;2022-07-23T05:34:36;1.10;;;1.00;;
37284;SDS011;23172;53.550;9.964;2022-07-23T05:39:39;1.58;;;0.90;;
37284;SDS011;23172;53.550;9.964;2022-07-23T05:44:41;1.35;;;0.90;;
37284;SDS011;23172;53.550;9.964;2022-07-23T05:49:43;2.55;;;1.13;;
37284;SDS011;23172;53.550;9.964;2022-07-23T05:54:46;1.83;;;1.50;;
37284;SDS011;23172;53.550;9.964;2022-07-23T05:59:48;2.20;;;1.48;;
37284;SDS011;23172;53.550;9.964;2022-07-23T06:04:50;1.40;;;1.25;;
37284;SDS011;23172;53.550;9.964;2022-07-23T06:09:53;2.03;;;1.42;;
37284;SDS011;23172;53.550;9.964;2022-07-23T06:14:55;1.88;;;1.60;;
37284;SDS011;23172;53.550;9.964;2022-07-23T06:19:56;1.40;;;1.27;;
37284;SDS011;23172;53.550;9.964;2022-07-23T06:25:00;2.05;;;1.50;;
37284;SDS011;23172;53.550;9.964;2022-07-23T06:30:02;1.98;;;1.40;;
37284;SDS011;23172;53.550;9.964;2022-07-23T06:35:04;2.50;;;1.65;;
37284;SDS011;23172;53.550;9.964;2022-07-23T06:40:08;2.22;;;1.75;;
37284;SDS011;23172;53.550;9.964;2022-07-23T06:45:11;1.77;;;1.52;;
37284;SDS011;23172;53.550;9.964;2022-07-23T06:50:13;1.65;;;1.55;;
37284;SDS011;23172;53.550;9.964;2022-07-23T06:55:16;1.98;;;1.30;;
37284;SDS011;23172;53.550;9.964;2022-07-23T07:00:18;1.05;;;0.95;;
37284;SDS011;23172;53.550;9.964;2022-07-23T07:05:20;2.55;;;1.20;;
37284;SDS011;23172;53.550;9.964;2022-07-23T07:10:24;0.90;;;0.80;;
37284;SDS011;23172;53.550;9.964;2022-07-23T07:15:26;2.25;;;0.73;;
37284;SDS011;23172;53.550;9.964;2022-07-23T07:20:27;1.63;;;0.70;;
37284;SDS011;23172;53.550;9.964;2022-07-23T07:25:31;1.10;;;0.80;;
37284;SDS011;23172;53.550;9.964;2022-07-23T07:30:32;1.50;;;0.82;;
37284;SDS011;23172;53.550;9.964;2022-07-23T07:35:34;0.80;;;0.60;;
37284;SDS011;23172;53.550;9.964;2022-07-23T07:40:37;0.52;;;0.52;;
37284;SDS011;23172;53.550;9.964;2022-07-23T07:45:39;1.60;;;0.60;;
37284;SDS011;23172;53.550;9.964;2022-07-23T07:50:41;0.70;;;0.60;;
37284;SDS011;23172;53.550;9.964;2022-07-23T07:55:44;0.45;;;0.40;;
37284;SDS011;23172;53.550;9.964;2022-07-23T08:00:46;0.30;;;0.30;;
37284;SDS011;23172;53.550;9.964;2022-07-23T08:05:48;0.47;;;0.43;;
37284;SDS011;23172;53.550;9.964;2022-07-23T08:10:51;1.52;;;0.60;;
37284;SDS011;23172;53.550;9.964;2022-07-23T08:15:53;0.77;;;0.40;;
37284;SDS011;23172;53.550;9.964;2022-07-23T08:20:55;1.50;;;0.60;;
37284;SDS011;23172;53.550;9.964;2022-07-23T08:25:58;1.35;;;0.70;;
37284;SDS011;23172;53.550;9.964;2022-07-23T08:31:01;0.95;;;0.60;;
37284;SDS011;23172;53.550;9.964;2022-07-23T08:36:05;0.60;;;0.52;;
37284;SDS011;23172;53.550;9.964;2022-07-23T08:41:09;1.05;;;0.60;;
37284;SDS011;23172;53.550;9.964;2022-07-23T08:46:11;0.77;;;0.57;;
37284;SDS011;23172;53.550;9.964;2022-07-23T08:51:15;0.80;;;0.60;;
37284;SDS011;23172;53.550;9.964;2022-07-23T08:56:18;1.23;;;1.13;;
37284;SDS011;23172;53.550;9.964;2022-07-23T09:01:20;1.00;;;0.90;;
37284;SDS011;23172;53.550;9.964;2022-07-23T09:06:22;1.15;;;1.05;;
37284;SDS011;23172;53.550;9.964;2022-07-23T09:11:25;1.45;;;0.75;;
37284;SDS011;23172;53.550;9.964;2022-07-23T09:16:28;1.48;;;0.95;;
37284;SDS011;23172;53.550;9.964;2022-07-23T09:21:31;2.05;;;0.60;;
37284;SDS011;23172;53.550;9.964;2022-07-23T09:26:36;1.17;;;0.80;;
37284;SDS011;23172;53.550;9.964;2022-07-23T09:31:46;0.70;;;0.65;;
37284;SDS011;23172;53.550;9.964;2022-07-23T09:36:50;1.50;;;0.85;;
37284;SDS011;23172;53.550;9.964;2022-07-23T09:41:55;1.05;;;0.70;;
37284;SDS011;23172;53.550;9.964;2022-07-23T09:46:58;1.20;;;0.73;;
37284;SDS011;23172;53.550;9.964;2022-07-23T09:52:01;0.63;;;0.60;;
37284;SDS011;23172;53.550;9.964;2022-07-23T09:57:06;1.42;;;0.60;;
37284;SDS011;23172;53.550;9.964;2022-07-23T10:02:13;0.70;;;0.68;;
37284;SDS011;23172;53.550;9.964;2022-07-23T10:07:16;1.50;;;0.70;;
37284;SDS011;23172;53.550;9.964;2022-07-23T10:12:20;0.50;;;0.50;;
37284;SDS011;23172;53.550;9.964;2022-07-23T10:17:36;0.40;;;0.40;;
37284;SDS011;23172;53.550;9.964;2022-07-23T10:22:38;0.95;;;0.50;;
37284;SDS011;23172;53.550;9.964;2022-07-23T10:27:53;0.65;;;0.40;;
37284;SDS011;23172;53.550;9.964;2022-07-23T10:33:25;0.93;;;0.63;;
37284;SDS011;23172;53.550;9.964;2022-07-23T10:38:35;0.52;;;0.52;;
37284;SDS011;23172;53.550;9.964;2022-07-23T10:43:45;1.33;;;0.47;;
37284;SDS011;23172;53.550;9.964;2022-07-23T10:49:26;0.60;;;0.60;;
37284;SDS011;23172;53.550;9.964;2022-07-23T10:54:29;0.40;;;0.40;;
37284;SDS011;23172;53.550;9.964;2022-07-23T10:59:32;1.00;;;0.70;;
37284;SDS011;23172;53.550;9.964;2022-07-23T11:05:13;0.93;;;0.73;;
37284;SDS011;23172;53.550;9.964;2022-07-23T11:15:34;1.33;;;0.70;;
37284;SDS011;23172;53.550;9.964;2022-07-23T11:26:44;0.50;;;0.43;;
37284;SDS011;23172;53.550;9.964;2022-07-23T11:31:58;0.73;;;0.40;;
37284;SDS011;23172;53.550;9.964;2022-07-23T11:37:02;0.75;;;0.50;;
37284;SDS011;23172;53.550;9.964;2022-07-23T11:42:06;0.68;;;0.65;;
37284;SDS011;23172;53.550;9.964;2022-07-23T11:47:10;0.40;;;0.40;;
37284;SDS011;23172;53.550;9.964;2022-07-23T11:52:13;0.60;;;0.55;;
37284;SDS011;23172;53.550;9.964;2022-07-23T11:57:16;1.23;;;0.93;;
37284;SDS011;23172;53.550;9.964;2022-07-23T12:02:20;0.98;;;0.73;;
37284;SDS011;23172;53.550;9.964;2022-07-23T12:07:26;1.17;;;0.98;;
37284;SDS011;23172;53.550;9.964;2022-07-23T12:12:34;1.50;;;0.80;;
37284;SDS011;23172;53.550;9.964;2022-07-23T12:17:39;0.90;;;0.70;;
37284;SDS011;23172;53.550;9.964;2022-07-23T12:22:42;2.00;;;1.40;;
37284;SDS011;23172;53.550;9.964;2022-07-23T12:27:46;1.63;;;0.90;;
37284;SDS011;23172;53.550;9.964;2022-07-23T12:33:00;1.35;;;0.90;;
37284;SDS011;23172;53.550;9.964;2022-07-23T12:38:03;0.93;;;0.75;;
37284;SDS011;23172;53.550;9.964;2022-07-23T12:43:07;1.88;;;0.85;;
37284;SDS011;23172;53.550;9.964;2022-07-23T12:48:16;1.13;;;0.93;;
37284;SDS011;23172;53.550;9.964;2022-07-23T12:53:23;1.55;;;1.02;;
37284;SDS011;23172;53.550;9.964;2022-07-23T12:58:26;2.97;;;0.82;;
37284;SDS011;23172;53.550;9.964;2022-07-23T13:03:30;1.30;;;0.98;;
37284;SDS011;23172;53.550;9.964;2022-07-23T13:08:38;1.13;;;0.70;;
37284;SDS011;23172;53.550;9.964;2022-07-23T13:13:41;1.05;;;0.93;;
37284;SDS011;23172;53.550;9.964;2022-07-23T13:18:44;1.13;;;0.70;;
37284;SDS011;23172;53.550;9.964;2022-07-23T13:23:46;0.73;;;0.63;;
37284;SDS011;23172;53.550;9.964;2022-07-23T13:28:48;0.70;;;0.70;;
37284;SDS011;23172;53.550;9.964;2022-07-23T13:33:52;0.68;;;0.63;;
37284;SDS011;23172;53.550;9.964;2022-07-23T13:38:53;1.52;;;0.65;;
37284;SDS011;23172;53.550;9.964;2022-07-23T13:43:55;1.33;;;0.90;;
37284;SDS011;23172;53.550;9.964;2022-07-23T13:48:59;1.88;;;1.00;;
37284;SDS011;23172;53.550;9.964;2022-07-23T13:54:01;0.80;;;0.80;;
37284;SDS011;23172;53.550;9.964;2022-07-23T13:59:03;1.58;;;0.80;;
37284;SDS011;23172;53.550;9.964;2022-07-23T14:04:06;0.75;;;0.75;;
37284;SDS011;23172;53.550;9.964;2022-07-23T14:09:08;0.70;;;0.52;;
37284;SDS011;23172;53.550;9.964;2022-07-23T14:14:10;2.03;;;0.82;;
37284;SDS011;23172;53.550;9.964;2022-07-23T14:19:13;3.25;;;3.05;;
37284;SDS011;23172;53.550;9.964;2022-07-23T14:24:15;1.35;;;1.20;;
37284;SDS011;23172;53.550;9.964;2022-07-23T14:29:17;2.47;;;1.20;;
37284;SDS011;23172;53.550;9.964;2022-07-23T14:34:21;1.38;;;0.98;;
37284;SDS011;23172;53.550;9.964;2022-07-23T14:39:22;1.85;;;0.80;;
37284;SDS011;23172;53.550;9.964;2022-07-23T14:44:24;4.72;;;2.85;;
37284;SDS011;23172;53.550;9.964;2022-07-23T14:49:27;2.15;;;1.40;;
37284;SDS011;23172;53.550;9.964;2022-07-23T14:54:29;1.80;;;0.90;;
37284;SDS011;23172;53.550;9.964;2022-07-23T14:59:31;2.03;;;1.05;;
37284;SDS011;23172;53.550;9.964;2022-07-23T15:04:34;1.50;;;0.90;;
37284;SDS011;23172;53.550;9.964;2022-07-23T15:09:37;1.63;;;1.13;;
37284;SDS011;23172;53.550;9.964;2022-07-23T15:14:38;1.77;;;1.10;;
37284;SDS011;23172;53.550;9.964;2022-07-23T15:19:42;2.22;;;1.13;;
37284;SDS011;23172;53.550;9.964;2022-07-23T15:24:43;2.20;;;1.55;;
37284;SDS011;23172;53.550;9.964;2022-07-23T15:29:45;0.90;;;0.90;;
37284;SDS011;23172;53.550;9.964;2022-07-23T15:34:48;1.83;;;1.20;;
37284;SDS011;23172;53.550;9.964;2022-07-23T15:39:50;4.90;;;4.38;;
37284;SDS011;23172;53.550;9.964;2022-07-23T15:44:52;3.05;;;1.90;;
37284;SDS011;23172;53.550;9.964;2022-07-23T15:49:55;11.52;;;9.60;;
37284;SDS011;23172;53.550;9.964;2022-07-23T15:54:57;4.20;;;3.50;;
37284;SDS011;23172;53.550;9.964;2022-07-23T15:59:59;4.35;;;3.20;;
37284;SDS011;23172;53.550;9.964;2022-07-23T16:05:02;2.88;;;2.10;;
37284;SDS011;23172;53.550;9.964;2022-07-23T16:10:22;2.13;;;1.83;;
37284;SDS011;23172;53.550;9.964;2022-07-23T16:15:24;4.43;;;3.35;;
37284;SDS011;23172;53.550;9.964;2022-07-23T16:20:28;2.22;;;1.60;;
37284;SDS011;23172;53.550;9.964;2022-07-23T16:25:30;1.48;;;1.15;;
37284;SDS011;23172;53.550;9.964;2022-07-23T16:30:32;2.35;;;2.13;;
37284;SDS011;23172;53.550;9.964;2022-07-23T16:35:36;1.55;;;1.45;;
37284;SDS011;23172;53.550;9.964;2022-07-23T16:40:38;2.55;;;1.95;;
37284;SDS011;23172;53.550;9.964;2022-07-23T16:45:40;2.70;;;1.92;;
37284;SDS011;23172;53.550;9.964;2022-07-23T16:50:43;1.80;;;1.40;;
37284;SDS011;23172;53.550;9.964;2022-07-23T16:55:45;1.60;;;1.45;;
37284;SDS011;23172;53.550;9.964;2022-07-23T17:00:47;2.05;;;1.30;;
37284;SDS011;23172;53.550;9.964;2022-07-23T17:05:50;5.68;;;3.65;;
37284;SDS011;23172;53.550;9.964;2022-07-23T17:10:52;6.85;;;5.70;;
37284;SDS011;23172;53.550;9.964;2022-07-23T17:15:54;2.60;;;2.28;;
37284;SDS011;23172;53.550;9.964;2022-07-23T17:20:57;1.90;;;1.70;;
37284;SDS011;23172;53.550;9.964;2022-07-23T17:25:59;2.22;;;1.88;;
37284;SDS011;23172;53.550;9.964;2022-07-23T17:31:01;2.08;;;1.70;;
37284;SDS011;23172;53.550;9.964;2022-07-23T17:36:05;5.78;;;4.57;;
37284;SDS011;23172;53.550;9.964;2022-07-23T17:41:07;1.92;;;1.60;;
37284;SDS011;23172;53.550;9.964;2022-07-23T17:46:09;3.75;;;2.67;;
37284;SDS011;23172;53.550;9.964;2022-07-23T17:51:13;3.25;;;2.35;;
37284;SDS011;23172;53.550;9.964;2022-07-23T17:56:15;20.50;;;16.58;;
37284;SDS011;23172;53.550;9.964;2022-07-23T18:01:17;6.38;;;5.40;;
37284;SDS011;23172;53.550;9.964;2022-07-23T18:06:20;3.40;;;3.10;;
37284;SDS011;23172;53.550;9.964;2022-07-23T18:11:23;2.20;;;1.92;;
37284;SDS011;23172;53.550;9.964;2022-07-23T18:16:25;2.53;;;1.65;;
37284;SDS011;23172;53.550;9.964;2022-07-23T18:21:28;2.28;;;1.67;;
37284;SDS011;23172;53.550;9.964;2022-07-23T18:26:31;3.22;;;1.65;;
37284;SDS011;23172;53.550;9.964;2022-07-23T18:31:32;2.80;;;2.05;;
37284;SDS011;23172;53.550;9.964;2022-07-23T18:36:36;1.60;;;1.50;;
37284;SDS011;23172;53.550;9.964;2022-07-23T18:41:38;2.40;;;1.77;;
37284;SDS011;23172;53.550;9.964;2022-07-23T18:46:39;2.60;;;2.40;;
37284;SDS011;23172;53.550;9.964;2022-07-23T18:51:43;1.50;;;1.40;;
37284;SDS011;23172;53.550;9.964;2022-07-23T18:56:45;6.03;;;4.70;;
37284;SDS011;23172;53.550;9.964;2022-07-23T19:01:46;3.00;;;2.50;;
37284;SDS011;23172;53.550;9.964;2022-07-23T19:06:50;3.63;;;2.80;;
37284;SDS011;23172;53.550;9.964;2022-07-23T19:11:51;4.18;;;3.05;;
37284;SDS011;23172;53.550;9.964;2022-07-23T19:16:54;2.88;;;2.45;;
37284;SDS011;23172;53.550;9.964;2022-07-23T19:21:57;3.05;;;1.92;;
37284;SDS011;23172;53.550;9.964;2022-07-23T19:26:59;2.80;;;2.50;;
37284;SDS011;23172;53.550;9.964;2022-07-23T19:32:01;3.20;;;2.75;;
37284;SDS011;23172;53.550;9.964;2022-07-23T19:37:05;3.15;;;2.40;;
37284;SDS011;23172;53.550;9.964;2022-07-23T19:42:11;5.32;;;4.85;;
37284;SDS011;23172;53.550;9.964;2022-07-23T19:47:14;4.57;;;3.35;;
37284;SDS011;23172;53.550;9.964;2022-07-23T19:52:17;3.65;;;3.03;;
37284;SDS011;23172;53.550;9.964;2022-07-23T19:57:19;5.03;;;3.40;;
37284;SDS011;23172;53.550;9.964;2022-07-23T20:02:21;2.85;;;1.88;;
37284;SDS011;23172;53.550;9.964;2022-07-23T20:07:24;2.45;;;1.70;;
37284;SDS011;23172;53.550;9.964;2022-07-23T20:12:26;1.83;;;1.60;;
37284;SDS011;23172;53.550;9.964;2022-07-23T20:17:28;3.83;;;3.40;;
37284;SDS011;23172;53.550;9.964;2022-07-23T20:22:31;3.25;;;1.83;;
37284;SDS011;23172;53.550;9.964;2022-07-23T20:27:33;2.22;;;1.83;;
37284;SDS011;23172;53.550;9.964;2022-07-23T20:32:35;2.13;;;1.73;;
37284;SDS011;23172;53.550;9.964;2022-07-23T20:37:38;3.08;;;1.90;;
37284;SDS011;23172;53.550;9.964;2022-07-23T20:42:40;3.70;;;2.10;;
37284;SDS011;23172;53.550;9.964;2022-07-23T20:47:42;5.10;;;4.13;;
37284;SDS011;23172;53.550;9.964;2022-07-23T20:52:45;3.03;;;2.55;;
37284;SDS011;23172;53.550;9.964;2022-07-23T20:57:47;2.90;;;2.40;;
37284;SDS011;23172;53.550;9.964;2022-07-23T21:02:49;9.05;;;8.15;;
37284;SDS011;23172;53.550;9.964;2022-07-23T21:07:52;4.57;;;3.90;;
37284;SDS011;23172;53.550;9.964;2022-07-23T21:12:54;4.68;;;4.28;;
37284;SDS011;23172;53.550;9.964;2022-07-23T21:17:56;3.08;;;2.75;;
37284;SDS011;23172;53.550;9.964;2022-07-23T21:22:59;2.70;;;2.38;;
37284;SDS011;23172;53.550;9.964;2022-07-23T21:28:01;2.88;;;2.08;;
37284;SDS011;23172;53.550;9.964;2022-07-23T21:33:03;2.63;;;2.42;;
37284;SDS011;23172;53.550;9.964;2022-07-23T21:38:06;3.30;;;2.75;;
37284;SDS011;23172;53.550;9.964;2022-07-23T21:43:08;3.13;;;2.50;;
37284;SDS011;23172;53.550;9.964;2022-07-23T21:48:10;2.60;;;2.33;;
37284;SDS011;23172;53.550;9.964;2022-07-23T21:53:14;2.65;;;2.30;;
37284;SDS011;23172;53.550;9.964;2022-07-23T21:58:16;3.33;;;3.03;;
37284;SDS011;23172;53.550;9.964;2022-07-23T22:03:18;3.10;;;1.92;;
37284;SDS011;23172;53.550;9.964;2022-07-23T22:08:21;3.05;;;2.38;;
37284;SDS011;23172;53.550;9.964;2022-07-23T22:13:23;2.92;;;2.20;;
37284;SDS011;23172;53.550;9.964;2022-07-23T22:18:25;2.83;;;2.50;;
37284;SDS011;23172;53.550;9.964;2022-07-23T22:23:28;3.65;;;2.90;;
37284;SDS011;23172;53.550;9.964;2022-07-23T22:28:30;2.75;;;2.25;;
37284;SDS011;23172;53.550;9.964;2022-07-23T22:33:32;3.70;;;3.20;;
37284;SDS011;23172;53.550;9.964;2022-07-23T22:38:35;2.78;;;2.58;;
37284;SDS011;23172;53.550;9.964;2022-07-23T22:43:36;4.43;;;3.85;;
37284;SDS011;23172;53.550;9.964;2022-07-23T22:48:38;4.63;;;4.10;;
37284;SDS011;23172;53.550;9.964;2022-07-23T22:53:42;4.13;;;3.72;;
37284;SDS011;23172;53.550;9.964;2022-07-23T22:58:43;4.28;;;3.88;;
37284;SDS011;23172;53.550;9.964;2022-07-23T23:03:45;3.70;;;3.40;;
37284;SDS011;23172;53.550;9.964;2022-07-23T23:08:48;5.30;;;4.78;;
37284;SDS011;23172;53.550;9.964;2022-07-23T23:13:50;5.15;;;4.63;;
37284;SDS011;23172;53.550;9.964;2022-07-23T23:18:52;10.68;;;4.60;;
37284;SDS011;23172;53.550;9.964;2022-07-23T23:23:55;5.43;;;4.65;;
37284;SDS011;23172;53.550;9.964;2022-07-23T23:28:57;5.70;;;4.63;;
37284;SDS011;23172;53.550;9.964;2022-07-23T23:33:59;5.80;;;5.20;;
37284;SDS011;23172;53.550;9.964;2022-07-23T23:39:02;6.30;;;5.80;;
37284;SDS011;23172;53.550;9.964;2022-07-23T23:44:04;7.45;;;6.75;;
37284;SDS011;23172;53.550;9.964;2022-07-23T23:49:06;7.97;;;7.20;;
37284;SDS011;23172;53.550;9.964;2022-07-23T23:54:09;8.27;;;7.57;;
37284;SDS011;23172;53.550;9.964;2022-07-23T23:59:13;9.95;;;8.85;;
